createdAt,value
2022-12-28T00:01:31.425Z,30.20
2022-12-28T00:04:03.232Z,29.98
2022-12-28T00:06:30.238Z,29.55
2022-12-28T00:08:57.815Z,28.55
2022-12-28T00:11:30.830Z,29.52
2022-12-28T00:14:01.514Z,30.45
2022-12-28T00:16:31.116Z,29.90
2022-12-28T00:18:59.608Z,31.23
2022-12-28T00:21:27.317Z,30.65
2022-12-28T00:23:57.940Z,30.88
2022-12-28T00:26:26.433Z,30.95
2022-12-28T00:28:56.855Z,29.42
2022-12-28T00:31:28.431Z,30.63
2022-12-28T00:33:55.150Z,28.10
2022-12-28T00:36:21.878Z,30.63
2022-12-28T00:38:48.509Z,29.63
2022-12-28T00:41:15.137Z,29.42
2022-12-28T00:43:41.726Z,28.67
2022-12-28T00:46:08.654Z,29.65
2022-12-28T00:48:35.352Z,29.45
2022-12-28T00:51:07.829Z,30.25
2022-12-28T00:53:34.970Z,28.65
2022-12-28T00:56:16.367Z,30.45
2022-12-28T00:58:43.703Z,30.88
2022-12-28T01:01:22.241Z,30.60
2022-12-28T01:03:49.481Z,30.00
2022-12-28T01:06:18.506Z,30.65
2022-12-28T01:08:45.102Z,30.25
2022-12-28T01:11:20.819Z,31.33
2022-12-28T01:13:49.082Z,31.98
2022-12-28T01:16:30.946Z,30.48
2022-12-28T01:18:59.809Z,31.40
2022-12-28T01:21:29.755Z,31.05
2022-12-28T01:24:00.627Z,30.08
2022-12-28T01:26:28.206Z,30.92
2022-12-28T01:28:55.010Z,31.50
2022-12-28T01:31:22.096Z,30.52
2022-12-28T01:33:49.323Z,29.52
2022-12-28T01:36:19.894Z,30.92
2022-12-28T01:38:47.113Z,30.15
2022-12-28T01:41:16.759Z,29.90
2022-12-28T01:44:07.971Z,31.55
2022-12-28T01:46:39.968Z,30.45
2022-12-28T01:49:20.229Z,30.92
2022-12-28T01:52:10.029Z,30.73
2022-12-28T01:54:45.372Z,31.35
2022-12-28T01:57:14.197Z,31.30
2022-12-28T01:59:43.629Z,33.60
2022-12-28T02:02:12.399Z,32.20
2022-12-28T02:04:39.323Z,32.17
2022-12-28T02:07:05.915Z,31.40
2022-12-28T02:10:40.444Z,33.92
2022-12-28T02:12:39.674Z,36.55
2022-12-28T02:15:06.725Z,34.92
2022-12-28T02:17:34.264Z,43.78
2022-12-28T02:20:01.078Z,35.45
2022-12-28T02:22:40.043Z,35.20
2022-12-28T02:25:52.198Z,35.47
2022-12-28T02:28:47.811Z,36.13
2022-12-28T02:31:21.250Z,41.45
2022-12-28T02:34:02.419Z,40.03
2022-12-28T02:36:35.309Z,42.50
2022-12-28T02:39:25.271Z,43.33
2022-12-28T02:41:53.173Z,43.22
2022-12-28T02:44:40.388Z,44.58
2022-12-28T02:47:32.705Z,44.50
2022-12-28T02:50:07.959Z,43.25
2022-12-28T02:52:50.843Z,47.67
2022-12-28T02:55:54.570Z,46.28
2022-12-28T02:59:22.516Z,46.63
2022-12-28T03:01:56.654Z,48.47
2022-12-28T03:04:44.796Z,40.88
2022-12-28T03:07:43.456Z,39.75
2022-12-28T03:10:41.714Z,39.75
2022-12-28T03:13:34.350Z,40.03
2022-12-28T03:16:07.180Z,41.70
2022-12-28T03:18:54.557Z,41.38
2022-12-28T03:21:40.903Z,41.90
2022-12-28T03:24:29.194Z,40.08
2022-12-28T03:27:16.988Z,40.70
2022-12-28T03:30:08.346Z,38.35
2022-12-28T03:32:35.251Z,38.92
2022-12-28T03:35:01.986Z,41.17
2022-12-28T03:37:32.944Z,40.80
2022-12-28T03:40:12.017Z,39.67
2022-12-28T03:43:04.481Z,39.35
2022-12-28T03:45:56.414Z,40.90
2022-12-28T03:48:25.193Z,42.55
2022-12-28T03:50:53.215Z,46.53
2022-12-28T03:53:24.881Z,50.30
2022-12-28T03:55:51.494Z,50.05
2022-12-28T03:58:19.305Z,52.78
2022-12-28T04:00:45.858Z,50.97
2022-12-28T04:03:12.451Z,52.72
2022-12-28T04:05:39.054Z,53.33
2022-12-28T04:08:05.611Z,55.38
2022-12-28T04:10:32.153Z,57.88
2022-12-28T04:12:58.695Z,55.53
2022-12-28T04:15:25.267Z,57.85
2022-12-28T04:17:51.785Z,56.17
2022-12-28T04:20:18.353Z,55.33
2022-12-28T04:22:45.025Z,55.25
2022-12-28T04:25:11.700Z,55.53
2022-12-28T04:27:38.262Z,57.22
2022-12-28T04:30:05.594Z,56.00
2022-12-28T04:32:32.180Z,57.33
2022-12-28T04:34:58.764Z,61.08
2022-12-28T04:37:25.305Z,62.85
2022-12-28T04:39:55.123Z,64.18
2022-12-28T04:42:24.935Z,71.20
2022-12-28T04:44:51.822Z,68.57
2022-12-28T04:47:18.438Z,68.28
2022-12-28T04:49:45.041Z,75.63
2022-12-28T04:52:11.783Z,76.45
2022-12-28T04:54:38.409Z,74.68
2022-12-28T04:57:05.069Z,71.95
2022-12-28T04:59:31.624Z,73.45
2022-12-28T05:01:58.288Z,72.80
2022-12-28T05:04:24.944Z,75.75
2022-12-28T05:06:51.543Z,79.55
2022-12-28T05:09:19.511Z,79.30
2022-12-28T05:11:46.178Z,77.68
2022-12-28T05:14:12.753Z,79.00
2022-12-28T05:16:39.523Z,85.25
2022-12-28T05:19:06.214Z,89.05
2022-12-28T05:21:32.886Z,94.28
2022-12-28T05:23:59.709Z,95.20
2022-12-28T05:26:29.120Z,104.97
2022-12-28T05:28:56.829Z,93.13
2022-12-28T05:31:24.004Z,108.70
2022-12-28T05:33:51.053Z,115.72
2022-12-28T05:36:24.303Z,107.80
2022-12-28T05:38:52.696Z,107.00
2022-12-28T05:41:25.860Z,109.93
2022-12-28T05:43:52.833Z,114.18
2022-12-28T05:46:32.402Z,129.13
2022-12-28T05:48:59.987Z,118.43
2022-12-28T05:51:31.434Z,125.05
2022-12-28T05:54:00.050Z,135.60
2022-12-28T05:56:29.318Z,134.65
2022-12-28T05:58:58.736Z,125.55
2022-12-28T06:01:28.391Z,127.30
2022-12-28T06:03:57.781Z,131.63
2022-12-28T06:06:25.427Z,140.88
2022-12-28T06:08:52.452Z,169.32
2022-12-28T06:11:24.701Z,147.23
2022-12-28T06:13:52.042Z,143.63
2022-12-28T06:16:21.400Z,156.45
2022-12-28T06:18:49.011Z,146.48
2022-12-28T06:21:30.032Z,145.18
2022-12-28T06:24:01.280Z,139.38
2022-12-28T06:26:30.228Z,141.77
2022-12-28T06:28:57.352Z,134.63
2022-12-28T06:31:27.031Z,138.35
2022-12-28T06:33:56.200Z,147.55
2022-12-28T06:36:43.281Z,137.43
2022-12-28T06:39:12.686Z,127.15
2022-12-28T06:41:40.156Z,117.32
2022-12-28T06:44:09.203Z,124.03
2022-12-28T06:46:37.198Z,118.30
2022-12-28T06:49:03.990Z,108.43
2022-12-28T06:51:38.704Z,100.20
2022-12-28T06:54:05.423Z,97.28
2022-12-28T06:56:34.148Z,112.13
2022-12-28T06:59:03.642Z,96.68
2022-12-28T07:01:38.963Z,106.57
2022-12-28T07:04:07.870Z,101.72
2022-12-28T07:06:37.919Z,114.40
2022-12-28T07:09:07.360Z,126.57
2022-12-28T07:11:34.146Z,119.50
2022-12-28T07:14:00.751Z,142.23
2022-12-28T07:18:55.935Z,133.00
2022-12-28T07:21:28.516Z,126.38
2022-12-28T07:23:56.206Z,190.65
2022-12-28T07:26:25.805Z,113.95
2022-12-28T07:28:55.061Z,113.50
2022-12-28T07:31:30.739Z,122.00
2022-12-28T07:33:59.380Z,120.07
2022-12-28T07:36:28.042Z,125.68
2022-12-28T07:38:55.058Z,131.23
2022-12-28T07:41:28.070Z,132.82
2022-12-28T07:43:55.028Z,137.38
2022-12-28T07:46:24.460Z,143.10
2022-12-28T07:48:51.889Z,149.45
2022-12-28T07:51:22.906Z,145.32
2022-12-28T07:53:51.657Z,193.85
2022-12-28T07:56:19.760Z,134.80
2022-12-28T07:58:51.792Z,144.60
2022-12-28T08:01:20.240Z,232.50
2022-12-28T08:03:47.394Z,157.07
2022-12-28T08:06:19.964Z,153.80
2022-12-28T08:08:48.885Z,144.57
2022-12-28T08:11:18.388Z,124.53
2022-12-28T08:13:47.395Z,108.97
2022-12-28T08:16:15.601Z,93.07
2022-12-28T08:18:42.651Z,86.95
2022-12-28T08:21:13.743Z,95.97
2022-12-28T08:23:40.704Z,74.97
2022-12-28T08:26:09.268Z,65.10
2022-12-28T08:28:36.623Z,67.65
2022-12-28T08:31:14.997Z,72.13
2022-12-28T08:33:42.515Z,73.43
2022-12-28T08:36:10.436Z,73.80
2022-12-28T08:38:38.451Z,54.28
2022-12-28T08:41:07.651Z,45.92
2022-12-28T08:43:34.903Z,34.42
2022-12-28T08:46:04.211Z,30.98
2022-12-28T08:48:31.279Z,29.30
2022-12-28T08:51:06.938Z,28.38
2022-12-28T08:53:33.868Z,27.13
2022-12-28T08:56:14.844Z,28.23
2022-12-28T08:58:43.343Z,29.75
2022-12-28T09:01:19.859Z,28.23
2022-12-28T09:03:49.422Z,27.50
2022-12-28T09:06:18.990Z,28.50
2022-12-28T09:09:04.871Z,28.65
2022-12-28T09:11:32.326Z,29.23
2022-12-28T09:13:58.944Z,28.60
2022-12-28T09:16:27.852Z,35.75
2022-12-28T09:18:56.558Z,37.63
2022-12-28T09:21:25.558Z,39.50
2022-12-28T09:23:52.359Z,39.50
2022-12-28T09:26:21.105Z,38.13
2022-12-28T09:28:59.864Z,35.97
2022-12-28T09:31:29.515Z,36.20
2022-12-28T09:36:49.205Z,32.67
2022-12-28T09:39:18.980Z,31.25
2022-12-28T09:41:49.262Z,31.40
2022-12-28T09:44:34.598Z,32.50
2022-12-28T09:47:12.565Z,33.70
2022-12-28T09:49:44.922Z,31.17
2022-12-28T09:52:14.396Z,30.02
2022-12-28T09:54:41.838Z,31.25
2022-12-28T09:57:15.266Z,33.08
2022-12-28T09:59:42.340Z,31.83
2022-12-28T10:02:33.759Z,32.10
2022-12-28T10:05:00.406Z,34.70
2022-12-28T10:07:27.002Z,32.25
2022-12-28T10:09:53.826Z,32.65
2022-12-28T10:12:24.392Z,30.05
2022-12-28T10:14:53.145Z,29.80
2022-12-28T10:17:26.708Z,29.10
2022-12-28T10:19:56.725Z,29.97
2022-12-28T10:22:25.562Z,30.92
2022-12-28T10:24:52.963Z,31.65
2022-12-28T10:27:30.968Z,31.95
2022-12-28T10:30:01.600Z,31.85
2022-12-28T10:32:48.808Z,31.83
2022-12-28T10:35:49.215Z,31.55
2022-12-28T10:38:24.422Z,31.15
2022-12-28T10:41:07.008Z,27.75
2022-12-28T10:43:36.851Z,24.05
2022-12-28T10:46:07.499Z,23.88
2022-12-28T10:48:39.262Z,22.77
2022-12-28T10:51:18.569Z,24.48
2022-12-28T10:53:47.735Z,21.95
2022-12-28T10:56:14.246Z,24.73
2022-12-28T10:58:42.858Z,26.45
2022-12-28T11:01:30.216Z,26.15
2022-12-28T11:03:56.957Z,28.15
2022-12-28T11:06:35.700Z,28.77
2022-12-28T11:09:20.670Z,30.38
2022-12-28T11:11:49.802Z,31.55
2022-12-28T11:14:30.814Z,31.08
2022-12-28T11:16:58.166Z,30.00
2022-12-28T11:19:25.990Z,28.35
2022-12-28T11:21:53.480Z,29.77
2022-12-28T11:24:25.663Z,28.08
2022-12-28T11:26:52.670Z,28.33
2022-12-28T11:29:19.713Z,28.08
2022-12-28T11:31:55.294Z,28.08
2022-12-28T11:34:26.750Z,27.25
2022-12-28T11:36:53.963Z,28.30
2022-12-28T11:39:26.572Z,29.65
2022-12-28T11:42:28.011Z,29.45
2022-12-28T11:44:48.930Z,28.80
2022-12-28T11:47:15.458Z,28.35
2022-12-28T11:49:43.549Z,26.73
2022-12-28T11:52:15.867Z,31.20
2022-12-28T11:54:55.544Z,29.75
2022-12-28T11:57:35.604Z,31.50
2022-12-28T12:00:22.180Z,28.75
2022-12-28T12:02:58.042Z,28.67
2022-12-28T12:05:39.486Z,26.63
2022-12-28T12:08:12.117Z,23.35
2022-12-28T12:10:41.601Z,22.38
2022-12-28T12:13:26.479Z,19.48
2022-12-28T12:16:04.125Z,20.77
2022-12-28T12:18:46.176Z,20.80
2022-12-28T12:21:22.193Z,21.25
2022-12-28T12:23:52.780Z,19.05
2022-12-28T12:26:29.607Z,17.90
2022-12-28T12:29:02.747Z,18.05
2022-12-28T12:31:35.541Z,18.27
2022-12-28T12:34:24.202Z,19.08
2022-12-28T12:37:11.271Z,20.27
2022-12-28T12:39:56.295Z,21.65
2022-12-28T12:42:31.921Z,21.02
2022-12-28T12:45:22.945Z,23.42
2022-12-28T12:47:58.281Z,23.23
2022-12-28T12:50:46.999Z,28.30
2022-12-28T12:53:16.544Z,28.10
2022-12-28T12:56:10.325Z,28.73
2022-12-28T12:58:55.424Z,29.77
2022-12-28T13:01:24.711Z,30.85
2022-12-28T13:03:53.915Z,32.63
2022-12-28T13:06:24.473Z,30.95
2022-12-28T13:09:05.413Z,31.98
2022-12-28T13:11:37.589Z,32.85
2022-12-28T13:14:05.409Z,32.45
2022-12-28T13:16:32.685Z,32.28
2022-12-28T13:19:00.718Z,32.05
2022-12-28T13:21:29.868Z,30.83
2022-12-28T13:23:57.499Z,31.88
2022-12-28T13:26:29.580Z,33.08
2022-12-28T13:28:58.493Z,32.28
2022-12-28T13:31:36.168Z,32.42
2022-12-28T13:34:23.475Z,30.77
2022-12-28T13:36:56.780Z,29.42
2022-12-28T13:39:28.309Z,30.50
2022-12-28T13:41:57.858Z,28.90
2022-12-28T13:44:42.906Z,29.27
2022-12-28T13:47:15.927Z,29.30
2022-12-28T13:49:49.628Z,29.38
2022-12-28T13:52:23.227Z,31.17
2022-12-28T13:54:55.366Z,30.65
2022-12-28T14:00:11.252Z,28.23
2022-12-28T14:02:41.522Z,29.27
2022-12-28T14:05:15.312Z,29.02
2022-12-28T14:07:42.225Z,29.58
2022-12-28T14:10:11.000Z,29.27
2022-12-28T14:12:38.893Z,28.35
2022-12-28T14:15:07.111Z,28.73
2022-12-28T14:17:34.947Z,29.70
2022-12-28T14:20:01.684Z,28.15
2022-12-28T14:22:36.078Z,27.65
2022-12-28T14:25:08.943Z,29.05
2022-12-28T14:27:39.863Z,27.98
2022-12-28T14:30:08.857Z,28.48
2022-12-28T14:32:42.396Z,26.77
2022-12-28T14:35:18.242Z,26.88
2022-12-28T14:37:46.599Z,27.00
2022-12-28T14:40:26.452Z,27.90
2022-12-28T14:42:54.871Z,27.00
2022-12-28T14:46:07.614Z,26.17
2022-12-28T14:48:38.298Z,28.60
2022-12-28T14:51:17.686Z,27.50
2022-12-28T14:53:45.563Z,27.27
2022-12-28T14:56:18.706Z,26.83
2022-12-28T14:58:58.623Z,26.35
2022-12-28T15:01:44.982Z,27.15
2022-12-28T15:04:39.537Z,27.88
2022-12-28T15:07:09.185Z,26.70
2022-12-28T15:09:36.626Z,29.15
2022-12-28T15:12:20.493Z,31.20
2022-12-28T15:14:47.579Z,29.98
2022-12-28T15:17:14.215Z,29.55
2022-12-28T15:19:42.783Z,30.40
2022-12-28T15:22:09.481Z,29.25
2022-12-28T15:24:36.323Z,30.00
2022-12-28T15:27:03.497Z,31.27
2022-12-28T15:32:16.773Z,30.20
2022-12-28T15:34:43.383Z,30.10
2022-12-28T15:37:09.922Z,30.70
2022-12-28T15:39:36.757Z,31.55
2022-12-28T15:42:03.447Z,32.53
2022-12-28T15:44:30.002Z,33.28
2022-12-28T15:46:56.644Z,41.90
2022-12-28T15:49:23.267Z,44.50
2022-12-28T15:51:49.992Z,41.95
2022-12-28T15:54:16.669Z,39.60
2022-12-28T15:56:43.255Z,39.78
2022-12-28T15:59:14.425Z,41.42
2022-12-28T16:01:43.412Z,44.20
2022-12-28T16:04:10.729Z,45.55
2022-12-28T16:06:43.830Z,74.78
2022-12-28T16:09:12.017Z,41.67
2022-12-28T16:11:38.591Z,41.35
2022-12-28T16:14:07.251Z,35.75
2022-12-28T16:16:38.426Z,34.65
2022-12-28T16:19:06.911Z,36.45
2022-12-28T16:21:33.799Z,36.35
2022-12-28T16:24:00.612Z,35.60
2022-12-28T16:26:28.026Z,34.97
2022-12-28T16:28:54.665Z,34.53
2022-12-28T16:31:32.598Z,34.90
2022-12-28T16:34:07.844Z,32.85
2022-12-28T16:36:34.998Z,31.42
2022-12-28T16:39:04.629Z,31.02
2022-12-28T16:41:36.482Z,30.75
2022-12-28T16:44:12.307Z,28.48
2022-12-28T16:46:39.073Z,28.83
2022-12-28T16:49:05.695Z,28.13
2022-12-28T16:51:32.543Z,28.63
2022-12-28T16:53:59.110Z,29.88
2022-12-28T16:56:25.886Z,29.50
2022-12-28T16:58:56.820Z,28.98
2022-12-28T17:01:23.783Z,28.92
2022-12-28T17:03:51.918Z,29.08
2022-12-28T17:06:19.076Z,28.58
2022-12-28T17:08:45.711Z,29.90
2022-12-28T17:11:12.737Z,29.48
2022-12-28T17:13:39.595Z,28.75
2022-12-28T17:16:07.031Z,27.35
2022-12-28T17:18:33.770Z,27.52
2022-12-28T17:21:04.902Z,29.48
2022-12-28T17:23:33.527Z,30.27
2022-12-28T17:26:00.101Z,29.67
2022-12-28T17:28:26.740Z,29.83
2022-12-28T17:31:06.744Z,32.20
2022-12-28T17:33:38.936Z,33.45
2022-12-28T17:36:06.757Z,34.10
2022-12-28T17:38:33.300Z,33.33
2022-12-28T17:40:59.847Z,32.78
2022-12-28T17:43:26.413Z,31.10
2022-12-28T17:45:54.620Z,31.52
2022-12-28T17:48:26.958Z,32.33
2022-12-28T17:50:53.569Z,29.48
2022-12-28T17:53:20.096Z,29.88
2022-12-28T17:55:46.847Z,30.23
2022-12-28T17:58:13.421Z,30.33
2022-12-28T18:00:39.984Z,34.00
2022-12-28T18:03:06.685Z,35.85
2022-12-28T18:05:34.601Z,37.28
2022-12-28T18:08:01.186Z,37.08
2022-12-28T18:10:27.787Z,35.90
2022-12-28T18:12:55.687Z,35.83
2022-12-28T18:15:22.270Z,35.28
2022-12-28T18:17:48.887Z,35.35
2022-12-28T18:20:16.158Z,35.13
2022-12-28T18:22:42.710Z,33.20
2022-12-28T18:25:09.651Z,33.70
2022-12-28T18:27:36.725Z,33.80
2022-12-28T18:30:03.796Z,38.38
2022-12-28T18:32:30.387Z,35.60
2022-12-28T18:34:56.993Z,33.70
2022-12-28T18:37:23.586Z,33.97
2022-12-28T18:39:50.130Z,31.77
2022-12-28T18:42:18.419Z,30.27
2022-12-28T18:44:46.266Z,30.65
2022-12-28T18:47:13.520Z,29.65
2022-12-28T18:49:45.480Z,28.13
2022-12-28T18:52:15.069Z,30.60
2022-12-28T18:54:41.739Z,30.00
2022-12-28T18:57:09.086Z,27.95
2022-12-28T18:59:35.888Z,29.60
2022-12-28T19:02:06.954Z,28.75
2022-12-28T19:04:35.189Z,29.67
2022-12-28T19:07:01.872Z,27.58
2022-12-28T19:09:28.444Z,25.88
2022-12-28T19:11:55.490Z,25.05
2022-12-28T19:14:22.205Z,23.30
2022-12-28T19:16:48.763Z,25.10
2022-12-28T19:19:17.222Z,26.20
2022-12-28T19:21:44.111Z,26.15
2022-12-28T19:24:18.714Z,27.70
2022-12-28T19:26:46.785Z,30.85
2022-12-28T19:29:15.508Z,30.90
2022-12-28T19:31:42.339Z,30.40
2022-12-28T19:34:09.048Z,30.67
2022-12-28T19:36:35.574Z,29.77
2022-12-28T19:39:02.157Z,28.33
2022-12-28T19:41:28.764Z,29.38
2022-12-28T19:43:55.482Z,30.65
2022-12-28T19:46:31.139Z,31.63
2022-12-28T19:49:02.143Z,31.02
2022-12-28T19:51:31.722Z,32.50
2022-12-28T19:54:00.960Z,29.38
2022-12-28T19:56:27.704Z,30.60
2022-12-28T19:58:59.456Z,29.70
2022-12-28T20:01:30.352Z,27.85
2022-12-28T20:03:57.228Z,26.48
2022-12-28T20:06:27.150Z,26.05
2022-12-28T20:09:01.902Z,27.17
2022-12-28T20:14:02.110Z,26.50
2022-12-28T20:16:30.954Z,25.48
2022-12-28T20:18:57.667Z,26.92
2022-12-28T20:21:25.824Z,26.70
2022-12-28T20:23:54.119Z,26.90
2022-12-28T20:26:22.460Z,27.02
2022-12-28T20:28:50.103Z,28.55
2022-12-28T20:31:16.768Z,28.45
2022-12-28T20:33:44.116Z,27.45
2022-12-28T20:36:22.144Z,29.05
2022-12-28T20:38:49.320Z,28.40
2022-12-28T20:41:38.960Z,28.02
2022-12-28T20:44:11.754Z,28.65
2022-12-28T20:46:38.517Z,28.20
2022-12-28T20:49:05.632Z,27.00
2022-12-28T20:51:32.534Z,27.20
2022-12-28T20:53:59.115Z,28.15
2022-12-28T20:56:25.833Z,27.27
2022-12-28T20:58:52.352Z,29.02
2022-12-28T21:01:19.476Z,29.40
2022-12-28T21:03:46.477Z,28.25
2022-12-28T21:06:13.394Z,28.27
2022-12-28T21:08:40.412Z,28.40
2022-12-28T21:11:07.128Z,30.77
2022-12-28T21:13:34.697Z,29.90
2022-12-28T21:16:06.087Z,30.67
2022-12-28T21:18:33.355Z,30.65
2022-12-28T21:21:00.304Z,29.05
2022-12-28T21:23:28.082Z,29.15
2022-12-28T21:26:06.605Z,29.20
2022-12-28T21:28:34.895Z,31.10
2022-12-28T21:31:03.818Z,30.30
2022-12-28T21:33:31.779Z,30.45
2022-12-28T21:36:06.456Z,30.58
2022-12-28T21:41:06.598Z,33.00
2022-12-28T21:43:33.466Z,30.80
2022-12-28T21:46:03.256Z,33.50
2022-12-28T21:48:35.645Z,34.75
2022-12-28T21:51:28.269Z,34.92
2022-12-28T21:53:55.376Z,35.47
2022-12-28T21:56:22.188Z,36.60
2022-12-28T21:58:50.031Z,37.78
2022-12-28T22:01:35.648Z,38.78
2022-12-28T22:04:23.294Z,37.03
2022-12-28T22:06:49.880Z,38.45
2022-12-28T22:09:34.860Z,40.72
2022-12-28T22:12:20.030Z,42.55
2022-12-28T22:17:14.687Z,39.17
2022-12-28T22:19:41.636Z,41.45
2022-12-28T22:22:08.283Z,44.13
2022-12-28T22:24:34.876Z,43.42
2022-12-28T22:27:01.465Z,46.28
2022-12-28T22:29:28.043Z,48.47
2022-12-28T22:31:54.741Z,55.60
2022-12-28T22:34:21.433Z,47.67
2022-12-28T22:36:48.055Z,51.92
2022-12-28T22:39:14.676Z,50.85
2022-12-28T22:41:41.243Z,56.30
2022-12-28T22:44:09.840Z,57.08
2022-12-28T22:46:36.456Z,57.70
2022-12-28T22:49:03.170Z,63.53
2022-12-28T22:51:29.826Z,61.55
2022-12-28T22:53:56.363Z,59.15
2022-12-28T22:56:22.975Z,60.55
2022-12-28T22:58:49.515Z,65.80
2022-12-28T23:01:18.667Z,67.68
2022-12-28T23:03:47.270Z,65.78
2022-12-28T23:06:16.667Z,70.90
2022-12-28T23:08:43.456Z,70.45
2022-12-28T23:11:34.021Z,72.70
2022-12-28T23:14:21.357Z,70.65
2022-12-28T23:16:48.548Z,71.40
2022-12-28T23:19:34.837Z,73.93
2022-12-28T23:22:21.416Z,72.20
2022-12-28T23:25:06.376Z,80.88
2022-12-28T23:27:39.614Z,78.40
2022-12-28T23:30:09.781Z,78.68
2022-12-28T23:32:36.375Z,81.65
2022-12-28T23:35:03.986Z,89.70
2022-12-28T23:37:31.176Z,86.35
2022-12-28T23:39:57.754Z,91.25
2022-12-28T23:42:24.317Z,89.35
2022-12-28T23:44:50.862Z,85.60
2022-12-28T23:47:18.644Z,87.60
2022-12-28T23:49:45.664Z,85.75
2022-12-28T23:52:12.859Z,88.88
2022-12-28T23:54:39.500Z,86.10
2022-12-28T23:57:06.163Z,128.70
2022-12-28T23:59:32.737Z,83.95
